2026/08/02

Sensor Date Temp./Hum.
h4-hermonville 02-08-2026 - 23:58 26.4°C / 44.5%
h2-hermonville 02-08-2026 - 23:54 26.9°C / 44.5%
h1-hermonville 02-08-2026 - 23:54 25.9°C / 47%
h3-hermonville 02-08-2026 - 23:50 26.8°C / 44.5%
h4-hermonville 02-08-2026 - 23:48 26.7°C / 44%
h2-hermonville 02-08-2026 - 23:44 26.9°C / 44.5%
h1-hermonville 02-08-2026 - 23:44 26.1°C / 46.5%
h3-hermonville 02-08-2026 - 23:40 26.9°C / 44%
h4-hermonville 02-08-2026 - 23:38 26.7°C / 44%
h2-hermonville 02-08-2026 - 23:34 26.9°C / 44%
h1-hermonville 02-08-2026 - 23:34 26.4°C / 45.5%
h3-hermonville 02-08-2026 - 23:30 27.1°C / 43.5%
h4-hermonville 02-08-2026 - 23:28 26.9°C / 43.5%
h2-hermonville 02-08-2026 - 23:24 27°C / 43.5%
h1-hermonville 02-08-2026 - 23:24 26.4°C / 45%
h3-hermonville 02-08-2026 - 23:20 26.9°C / 43%
h4-hermonville 02-08-2026 - 23:18 26.9°C / 43%
h2-hermonville 02-08-2026 - 23:14 27.2°C / 42.5%
h1-hermonville 02-08-2026 - 23:14 26.5°C / 44.5%
h3-hermonville 02-08-2026 - 23:10 27.2°C / 42.5%
h4-hermonville 02-08-2026 - 23:08 27°C / 42%
h2-hermonville 02-08-2026 - 23:04 27.3°C / 42%
h1-hermonville 02-08-2026 - 23:04 26.7°C / 43.5%
h3-hermonville 02-08-2026 - 23:00 27.3°C / 41%
h4-hermonville 02-08-2026 - 22:58 27°C / 41%
h2-hermonville 02-08-2026 - 22:54 27.4°C / 41%
h1-hermonville 02-08-2026 - 22:54 26.8°C / 42%
h3-hermonville 02-08-2026 - 22:50 27.6°C / 39.5%
h4-hermonville 02-08-2026 - 22:48 27.1°C / 40%
h2-hermonville 02-08-2026 - 22:44 27.4°C / 40.5%
h1-hermonville 02-08-2026 - 22:44 27.1°C / 40.5%
h3-hermonville 02-08-2026 - 22:40 27.7°C / 38.5%
h4-hermonville 02-08-2026 - 22:38 27.1°C / 39%
h2-hermonville 02-08-2026 - 22:34 27.5°C / 39%
h1-hermonville 02-08-2026 - 22:34 27.4°C / 38.5%
h3-hermonville 02-08-2026 - 22:30 27.8°C / 37%
h4-hermonville 02-08-2026 - 22:28 27.3°C / 37.5%
h2-hermonville 02-08-2026 - 22:24 27.7°C / 39%
h1-hermonville 02-08-2026 - 22:24 27.4°C / 37.5%
h3-hermonville 02-08-2026 - 22:20 27.9°C / 37%
h2-hermonville 02-08-2026 - 22:14 27.6°C / 39%
h1-hermonville 02-08-2026 - 22:14 27.5°C / 37.5%
h3-hermonville 02-08-2026 - 22:10 28°C / 36.5%
h4-hermonville 02-08-2026 - 22:08 27.4°C / 37.5%
h2-hermonville 02-08-2026 - 22:04 27.7°C / 39%
h1-hermonville 02-08-2026 - 22:04 27.6°C / 37.5%
h3-hermonville 02-08-2026 - 22:00 28.1°C / 36.5%
h4-hermonville 02-08-2026 - 21:58 27.5°C / 37.5%
h2-hermonville 02-08-2026 - 21:54 27.6°C / 38%
h1-hermonville 02-08-2026 - 21:54 27.8°C / 37%
h3-hermonville 02-08-2026 - 21:50 28.2°C / 36.5%
h4-hermonville 02-08-2026 - 21:48 27.5°C / 37.5%
h2-hermonville 02-08-2026 - 21:44 27.6°C / 39%
h1-hermonville 02-08-2026 - 21:44 27.9°C / 36.5%
h3-hermonville 02-08-2026 - 21:40 28.3°C / 36%
h4-hermonville 02-08-2026 - 21:38 27.8°C / 37.5%
h2-hermonville 02-08-2026 - 21:34 27.4°C / 39.5%
h1-hermonville 02-08-2026 - 21:34 28.1°C / 37%
h3-hermonville 02-08-2026 - 21:30 28.4°C / 36%
h4-hermonville 02-08-2026 - 21:28 27.8°C / 37.5%
h2-hermonville 02-08-2026 - 21:24 27.7°C / 40%
h1-hermonville 02-08-2026 - 21:24 28.3°C / 37%
h3-hermonville 02-08-2026 - 21:20 28.6°C / 36%
h4-hermonville 02-08-2026 - 21:18 27.8°C / 37.5%
h2-hermonville 02-08-2026 - 21:14 27.7°C / 40.5%
h1-hermonville 02-08-2026 - 21:14 28.3°C / 37%
h3-hermonville 02-08-2026 - 21:10 28.8°C / 36.5%
h4-hermonville 02-08-2026 - 21:08 28.1°C / 38%
h2-hermonville 02-08-2026 - 21:04 28°C / 40%
h1-hermonville 02-08-2026 - 21:04 28.4°C / 37.5%
h3-hermonville 02-08-2026 - 21:00 28.9°C / 36.5%
h4-hermonville 02-08-2026 - 20:58 28.2°C / 38.5%
h2-hermonville 02-08-2026 - 20:54 29.2°C / 38.5%
h1-hermonville 02-08-2026 - 20:54 28.3°C / 38%
h3-hermonville 02-08-2026 - 20:50 29.2°C / 37.5%
h4-hermonville 02-08-2026 - 20:48 28.4°C / 39%
h2-hermonville 02-08-2026 - 20:44 28.7°C / 39%
h1-hermonville 02-08-2026 - 20:44 28.8°C / 38.5%
h3-hermonville 02-08-2026 - 20:40 29.5°C / 36.5%
h4-hermonville 02-08-2026 - 20:38 28.6°C / 37.5%
h2-hermonville 02-08-2026 - 20:34 29°C / 37.5%
h1-hermonville 02-08-2026 - 20:34 29.3°C / 36%
h3-hermonville 02-08-2026 - 20:30 29.8°C / 35%
h4-hermonville 02-08-2026 - 20:28 28.8°C / 36.5%
h2-hermonville 02-08-2026 - 20:24 29.3°C / 37%
h1-hermonville 02-08-2026 - 20:24 29.7°C / 35%
h3-hermonville 02-08-2026 - 20:20 30°C / 34.5%
h4-hermonville 02-08-2026 - 20:18 29°C / 36.5%
h2-hermonville 02-08-2026 - 20:14 29.5°C / 37%
h1-hermonville 02-08-2026 - 20:14 29.8°C / 35.5%
h3-hermonville 02-08-2026 - 20:10 30.2°C / 34.5%
h4-hermonville 02-08-2026 - 20:08 29.2°C / 36.5%
h2-hermonville 02-08-2026 - 20:04 29.7°C / 37%
h1-hermonville 02-08-2026 - 20:04 30.1°C / 35%
h3-hermonville 02-08-2026 - 20:00 30.4°C / 34.5%
h4-hermonville 02-08-2026 - 19:58 29.3°C / 36.5%
h2-hermonville 02-08-2026 - 19:54 31°C / 35.5%
h1-hermonville 02-08-2026 - 19:54 30°C / 38%
h3-hermonville 02-08-2026 - 19:50 30.5°C / 36%
h4-hermonville 02-08-2026 - 19:48 29.4°C / 37.5%
h2-hermonville 02-08-2026 - 19:44 31.9°C / 32.5%
h1-hermonville 02-08-2026 - 19:44 30.3°C / 35%
h3-hermonville 02-08-2026 - 19:40 30.7°C / 33%
h4-hermonville 02-08-2026 - 19:38 29.4°C / 34.5%
h2-hermonville 02-08-2026 - 19:34 30.7°C / 34%
h1-hermonville 02-08-2026 - 19:34 30.4°C / 34%
h3-hermonville 02-08-2026 - 19:30 30.9°C / 32.5%
h4-hermonville 02-08-2026 - 19:28 29.5°C / 34.5%
h2-hermonville 02-08-2026 - 19:24 32.3°C / 31%
h1-hermonville 02-08-2026 - 19:24 30.4°C / 32.5%
h3-hermonville 02-08-2026 - 19:20 30.8°C / 32%
h4-hermonville 02-08-2026 - 19:18 29.7°C / 33.5%
h2-hermonville 02-08-2026 - 19:14 34.9°C / 27.5%
h1-hermonville 02-08-2026 - 19:14 30.5°C / 32.5%
h3-hermonville 02-08-2026 - 19:10 31.1°C / 31.5%
h4-hermonville 02-08-2026 - 19:08 29.8°C / 33.5%
h2-hermonville 02-08-2026 - 19:04 33.6°C / 29.5%
h1-hermonville 02-08-2026 - 19:04 30.8°C / 31.5%
h3-hermonville 02-08-2026 - 19:00 30.9°C / 31.5%
h4-hermonville 02-08-2026 - 18:58 29.8°C / 33.5%
h1-hermonville 02-08-2026 - 18:54 30.7°C / 31.5%
h3-hermonville 02-08-2026 - 18:50 31°C / 32%
h4-hermonville 02-08-2026 - 18:48 29.8°C / 33.5%
h2-hermonville 02-08-2026 - 18:44 34.9°C / 27.5%
h1-hermonville 02-08-2026 - 18:44 30.7°C / 32%
h3-hermonville 02-08-2026 - 18:40 31°C / 31%
h4-hermonville 02-08-2026 - 18:38 29.8°C / 33.5%
h2-hermonville 02-08-2026 - 18:34 33.8°C / 29%
h1-hermonville 02-08-2026 - 18:34 31°C / 31.5%
h3-hermonville 02-08-2026 - 18:30 31°C / 31%
h4-hermonville 02-08-2026 - 18:28 29.8°C / 33.5%
h2-hermonville 02-08-2026 - 18:24 33.4°C / 30%
h1-hermonville 02-08-2026 - 18:24 30.8°C / 31.5%
h3-hermonville 02-08-2026 - 18:20 30.8°C / 31.5%
h4-hermonville 02-08-2026 - 18:18 29.8°C / 34%
h2-hermonville 02-08-2026 - 18:14 32.3°C / 31%
h1-hermonville 02-08-2026 - 18:14 30.6°C / 32%
h3-hermonville 02-08-2026 - 18:10 31.1°C / 31.5%
h4-hermonville 02-08-2026 - 18:08 30°C / 33%
h2-hermonville 02-08-2026 - 18:04 34.7°C / 28%
h1-hermonville 02-08-2026 - 18:04 30.7°C / 32%
h3-hermonville 02-08-2026 - 18:00 31.4°C / 31.5%
h4-hermonville 02-08-2026 - 17:58 30°C / 33.5%
h2-hermonville 02-08-2026 - 17:54 36.9°C / 26%
h1-hermonville 02-08-2026 - 17:54 30.7°C / 32.5%
h3-hermonville 02-08-2026 - 17:50 31.1°C / 31.5%
h4-hermonville 02-08-2026 - 17:48 29.9°C / 34%
h2-hermonville 02-08-2026 - 17:44 36.4°C / 25.5%
h1-hermonville 02-08-2026 - 17:44 30.6°C / 33%
h3-hermonville 02-08-2026 - 17:40 31.2°C / 31.5%
h4-hermonville 02-08-2026 - 17:38 29.8°C / 34%
h2-hermonville 02-08-2026 - 17:34 35.3°C / 27.5%
h1-hermonville 02-08-2026 - 17:34 30.8°C / 32%
h3-hermonville 02-08-2026 - 17:30 31.3°C / 31%
h4-hermonville 02-08-2026 - 17:28 29.9°C / 34%
h2-hermonville 02-08-2026 - 17:24 35.3°C / 28%
h1-hermonville 02-08-2026 - 17:24 30.8°C / 32%
h3-hermonville 02-08-2026 - 17:20 31.4°C / 31.5%
h4-hermonville 02-08-2026 - 17:18 30°C / 34%
h2-hermonville 02-08-2026 - 17:14 35°C / 28%
h1-hermonville 02-08-2026 - 17:14 30.6°C / 33%
h3-hermonville 02-08-2026 - 17:10 31.3°C / 32%
h4-hermonville 02-08-2026 - 17:08 29.8°C / 34%
h2-hermonville 02-08-2026 - 17:04 36.2°C / 26%
h1-hermonville 02-08-2026 - 17:04 30.4°C / 33.5%
h3-hermonville 02-08-2026 - 17:00 31.4°C / 31.5%
h4-hermonville 02-08-2026 - 16:58 29.8°C / 34%
h2-hermonville 02-08-2026 - 16:54 34.7°C / 28%
h1-hermonville 02-08-2026 - 16:54 30.3°C / 34%
h3-hermonville 02-08-2026 - 16:50 31.2°C / 32%
h4-hermonville 02-08-2026 - 16:48 29.7°C / 34%
h2-hermonville 02-08-2026 - 16:44 35.4°C / 28%
h1-hermonville 02-08-2026 - 16:44 30.3°C / 34%
h3-hermonville 02-08-2026 - 16:40 31.1°C / 31.5%
h4-hermonville 02-08-2026 - 16:38 29.5°C / 34.5%
h2-hermonville 02-08-2026 - 16:34 33.5°C / 29.5%
h1-hermonville 02-08-2026 - 16:34 30°C / 34.5%
h3-hermonville 02-08-2026 - 16:30 30.9°C / 33%
h4-hermonville 02-08-2026 - 16:28 29.6°C / 34.5%
h2-hermonville 02-08-2026 - 16:24 31.5°C / 33%
h1-hermonville 02-08-2026 - 16:24 29.8°C / 34.5%
h3-hermonville 02-08-2026 - 16:20 30.6°C / 32.5%
h4-hermonville 02-08-2026 - 16:18 29.6°C / 34%
h2-hermonville 02-08-2026 - 16:14 30.7°C / 34%
h1-hermonville 02-08-2026 - 16:14 29.9°C / 34%
h3-hermonville 02-08-2026 - 16:10 30.7°C / 32%
h4-hermonville 02-08-2026 - 16:08 29.4°C / 34.5%
h2-hermonville 02-08-2026 - 16:04 29.6°C / 36%
h1-hermonville 02-08-2026 - 16:04 29.8°C / 34.5%
h3-hermonville 02-08-2026 - 16:00 30.6°C / 33.5%
h4-hermonville 02-08-2026 - 15:58 29.4°C / 34.5%
h2-hermonville 02-08-2026 - 15:54 30.1°C / 35%
h1-hermonville 02-08-2026 - 15:54 29.5°C / 35%
h3-hermonville 02-08-2026 - 15:50 30.1°C / 34%
h4-hermonville 02-08-2026 - 15:48 29.4°C / 34.5%
h2-hermonville 02-08-2026 - 15:44 30°C / 34.5%
h1-hermonville 02-08-2026 - 15:44 28.9°C / 35.5%
h3-hermonville 02-08-2026 - 15:40 30°C / 34%
h4-hermonville 02-08-2026 - 15:38 29.3°C / 34%
h2-hermonville 02-08-2026 - 15:34 29.4°C / 36%
h1-hermonville 02-08-2026 - 15:34 28.7°C / 36%
h3-hermonville 02-08-2026 - 15:30 29.6°C / 34.5%
h4-hermonville 02-08-2026 - 15:28 29.3°C / 34.5%
h2-hermonville 02-08-2026 - 15:24 28.6°C / 37%
h1-hermonville 02-08-2026 - 15:24 28.7°C / 36.5%
h3-hermonville 02-08-2026 - 15:20 29.8°C / 35.5%
h4-hermonville 02-08-2026 - 15:18 29.2°C / 35.5%
h2-hermonville 02-08-2026 - 15:14 29°C / 37.5%
h1-hermonville 02-08-2026 - 15:14 28.3°C / 37.5%
h3-hermonville 02-08-2026 - 15:10 29.6°C / 35.5%
h4-hermonville 02-08-2026 - 15:08 28.9°C / 36%
h2-hermonville 02-08-2026 - 15:04 28.3°C / 38%
h1-hermonville 02-08-2026 - 15:04 28.1°C / 38.5%
h3-hermonville 02-08-2026 - 15:00 29.2°C / 36.5%
h4-hermonville 02-08-2026 - 14:58 29°C / 36%
h2-hermonville 02-08-2026 - 14:54 27.9°C / 39.5%
h1-hermonville 02-08-2026 - 14:54 28.2°C / 38.5%
h3-hermonville 02-08-2026 - 14:50 28.6°C / 37.5%
h4-hermonville 02-08-2026 - 14:48 28.8°C / 36%
h2-hermonville 02-08-2026 - 14:44 27.5°C / 39.5%
h1-hermonville 02-08-2026 - 14:44 27.9°C / 38.5%
h3-hermonville 02-08-2026 - 14:40 28.5°C / 37%
h4-hermonville 02-08-2026 - 14:38 28.7°C / 36%
h2-hermonville 02-08-2026 - 14:34 27.1°C / 40.5%
h1-hermonville 02-08-2026 - 14:34 27.8°C / 38.5%
h3-hermonville 02-08-2026 - 14:30 28.9°C / 36.5%
h4-hermonville 02-08-2026 - 14:28 28.8°C / 35.5%
h2-hermonville 02-08-2026 - 14:24 26.7°C / 41%
h1-hermonville 02-08-2026 - 14:24 27.6°C / 38%
h3-hermonville 02-08-2026 - 14:20 28.6°C / 36.5%
h4-hermonville 02-08-2026 - 14:18 28.6°C / 36%
h2-hermonville 02-08-2026 - 14:14 26.5°C / 41%
h1-hermonville 02-08-2026 - 14:14 27.8°C / 37.5%
h3-hermonville 02-08-2026 - 14:10 28.4°C / 36.5%
h4-hermonville 02-08-2026 - 14:08 28.5°C / 36%
h2-hermonville 02-08-2026 - 14:04 26.7°C / 40.5%
h1-hermonville 02-08-2026 - 14:04 27.6°C / 38%
h3-hermonville 02-08-2026 - 14:00 28.1°C / 37%
h4-hermonville 02-08-2026 - 13:58 28.5°C / 35.5%
h2-hermonville 02-08-2026 - 13:54 26.4°C / 40.5%
h1-hermonville 02-08-2026 - 13:54 27.2°C / 38.5%
h3-hermonville 02-08-2026 - 13:50 28.3°C / 35.5%
h4-hermonville 02-08-2026 - 13:48 28.6°C / 35%
h2-hermonville 02-08-2026 - 13:44 26.4°C / 40.5%
h1-hermonville 02-08-2026 - 13:44 27.2°C / 38%
h3-hermonville 02-08-2026 - 13:40 28.2°C / 36%
h4-hermonville 02-08-2026 - 13:38 28.6°C / 34.5%
h2-hermonville 02-08-2026 - 13:34 26.5°C / 40%
h1-hermonville 02-08-2026 - 13:34 26.7°C / 38%
h3-hermonville 02-08-2026 - 13:30 27.7°C / 36.5%
h4-hermonville 02-08-2026 - 13:28 28.2°C / 35%
h2-hermonville 02-08-2026 - 13:24 26.7°C / 39.5%
h1-hermonville 02-08-2026 - 13:24 26.3°C / 39.5%
h3-hermonville 02-08-2026 - 13:20 27.1°C / 38%
h4-hermonville 02-08-2026 - 13:18 28.3°C / 35%
h2-hermonville 02-08-2026 - 13:14 26.5°C / 39.5%
h1-hermonville 02-08-2026 - 13:14 26.4°C / 39.5%
h3-hermonville 02-08-2026 - 13:10 26.8°C / 38.5%
h4-hermonville 02-08-2026 - 13:08 28.3°C / 35%
h2-hermonville 02-08-2026 - 13:04 26.2°C / 41%
h1-hermonville 02-08-2026 - 13:04 26.3°C / 39.5%
h3-hermonville 02-08-2026 - 13:00 26.8°C / 39.5%
h2-hermonville 02-08-2026 - 12:54 25.9°C / 41.5%
h1-hermonville 02-08-2026 - 12:54 26°C / 41%
h3-hermonville 02-08-2026 - 12:50 26.5°C / 40%
h4-hermonville 02-08-2026 - 12:48 28.2°C / 36%
h2-hermonville 02-08-2026 - 12:44 25.7°C / 42.5%
h1-hermonville 02-08-2026 - 12:44 25.9°C / 41%
h3-hermonville 02-08-2026 - 12:40 26.5°C / 40%
h4-hermonville 02-08-2026 - 12:38 28.2°C / 36%
h2-hermonville 02-08-2026 - 12:34 25.8°C / 41.5%
h1-hermonville 02-08-2026 - 12:34 25.5°C / 41.5%
h3-hermonville 02-08-2026 - 12:30 25.9°C / 41%
h4-hermonville 02-08-2026 - 12:28 28.2°C / 36%
h2-hermonville 02-08-2026 - 12:24 25.3°C / 42%
h1-hermonville 02-08-2026 - 12:24 25.5°C / 41.5%
h3-hermonville 02-08-2026 - 12:20 25.6°C / 41%
h4-hermonville 02-08-2026 - 12:18 28.4°C / 35%
h2-hermonville 02-08-2026 - 12:14 25.1°C / 42.5%
h1-hermonville 02-08-2026 - 12:14 25.2°C / 42%
h3-hermonville 02-08-2026 - 12:10 25.5°C / 41%
h4-hermonville 02-08-2026 - 12:08 30°C / 32%
h2-hermonville 02-08-2026 - 12:04 24.9°C / 42.5%
h1-hermonville 02-08-2026 - 12:04 24.8°C / 42.5%
h3-hermonville 02-08-2026 - 12:00 25.3°C / 41%
h4-hermonville 02-08-2026 - 11:58 31.3°C / 30%
h2-hermonville 02-08-2026 - 11:54 24.4°C / 43%
h1-hermonville 02-08-2026 - 11:54 24.4°C / 42.5%
h3-hermonville 02-08-2026 - 11:50 25°C / 41%
h4-hermonville 02-08-2026 - 11:48 32.9°C / 28%
h2-hermonville 02-08-2026 - 11:44 23.9°C / 44%
h1-hermonville 02-08-2026 - 11:44 24.1°C / 42.5%
h3-hermonville 02-08-2026 - 11:40 24.9°C / 40.5%
h4-hermonville 02-08-2026 - 11:38 33.2°C / 27.5%
h2-hermonville 02-08-2026 - 11:34 23.7°C / 43.5%
h1-hermonville 02-08-2026 - 11:34 23.9°C / 43%
h3-hermonville 02-08-2026 - 11:30 24.4°C / 41.5%
h4-hermonville 02-08-2026 - 11:28 32.5°C / 28%
h2-hermonville 02-08-2026 - 11:24 23.7°C / 43%
h1-hermonville 02-08-2026 - 11:24 23.6°C / 42.5%
h3-hermonville 02-08-2026 - 11:20 24.2°C / 41.5%
h4-hermonville 02-08-2026 - 11:18 32.7°C / 27.5%
h2-hermonville 02-08-2026 - 11:14 23.5°C / 43%
h1-hermonville 02-08-2026 - 11:14 23.4°C / 43%
h3-hermonville 02-08-2026 - 11:10 23.9°C / 41.5%
h4-hermonville 02-08-2026 - 11:08 31.9°C / 28.5%
h2-hermonville 02-08-2026 - 11:04 23.2°C / 43.5%
h1-hermonville 02-08-2026 - 11:04 23.1°C / 43.5%
h3-hermonville 02-08-2026 - 11:00 23.6°C / 41%
h4-hermonville 02-08-2026 - 10:58 32°C / 28%
h2-hermonville 02-08-2026 - 10:54 22.9°C / 43.5%
h1-hermonville 02-08-2026 - 10:54 23°C / 43%
h3-hermonville 02-08-2026 - 10:50 23.4°C / 42%
h4-hermonville 02-08-2026 - 10:48 32°C / 27%
h2-hermonville 02-08-2026 - 10:44 22.6°C / 43%
h1-hermonville 02-08-2026 - 10:44 22.5°C / 43%
h3-hermonville 02-08-2026 - 10:40 23.1°C / 42%
h4-hermonville 02-08-2026 - 10:38 30.6°C / 28.5%
h2-hermonville 02-08-2026 - 10:34 22.4°C / 43%
h1-hermonville 02-08-2026 - 10:34 22.3°C / 43.5%
h4-hermonville 02-08-2026 - 10:28 30.4°C / 29.5%
h2-hermonville 02-08-2026 - 10:24 22.2°C / 43%
h1-hermonville 02-08-2026 - 10:24 22°C / 43%
h3-hermonville 02-08-2026 - 10:20 22.7°C / 42%
h4-hermonville 02-08-2026 - 10:18 30.4°C / 28%
h2-hermonville 02-08-2026 - 10:14 21.9°C / 43%
h1-hermonville 02-08-2026 - 10:14 21.7°C / 44%
h3-hermonville 02-08-2026 - 10:10 22.4°C / 42.5%
h4-hermonville 02-08-2026 - 10:08 29.9°C / 28.5%
h2-hermonville 02-08-2026 - 10:04 21.8°C / 43%
h1-hermonville 02-08-2026 - 10:04 20.9°C / 44%
h3-hermonville 02-08-2026 - 10:00 22.1°C / 43%
h4-hermonville 02-08-2026 - 09:58 30.4°C / 27.5%
h2-hermonville 02-08-2026 - 09:54 21.1°C / 44.5%
h1-hermonville 02-08-2026 - 09:54 20.9°C / 44.5%
h3-hermonville 02-08-2026 - 09:50 21.9°C / 43%
h4-hermonville 02-08-2026 - 09:48 30.1°C / 28%
h2-hermonville 02-08-2026 - 09:44 21°C / 44.5%
h1-hermonville 02-08-2026 - 09:44 20.6°C / 45%
h3-hermonville 02-08-2026 - 09:40 21.6°C / 44%
h4-hermonville 02-08-2026 - 09:38 29.2°C / 29.5%
h2-hermonville 02-08-2026 - 09:34 20.7°C / 44.5%
h1-hermonville 02-08-2026 - 09:34 20°C / 46.5%
h3-hermonville 02-08-2026 - 09:30 21.4°C / 43.5%
h4-hermonville 02-08-2026 - 09:28 29.1°C / 28.5%
h2-hermonville 02-08-2026 - 09:24 20.5°C / 44.5%
h1-hermonville 02-08-2026 - 09:24 19.7°C / 46.5%
h3-hermonville 02-08-2026 - 09:20 21.1°C / 43%
h4-hermonville 02-08-2026 - 09:18 27.3°C / 32%
h2-hermonville 02-08-2026 - 09:14 20.9°C / 43.5%
h1-hermonville 02-08-2026 - 09:14 19.4°C / 46%
h3-hermonville 02-08-2026 - 09:10 21°C / 43%
h4-hermonville 02-08-2026 - 09:08 25.8°C / 32.5%
h2-hermonville 02-08-2026 - 09:04 20.4°C / 43.5%
h1-hermonville 02-08-2026 - 09:04 19.4°C / 46%
h3-hermonville 02-08-2026 - 09:00 20.8°C / 43.5%
h4-hermonville 02-08-2026 - 08:58 26.4°C / 31%
h2-hermonville 02-08-2026 - 08:54 19.7°C / 46%
h1-hermonville 02-08-2026 - 08:54 18.9°C / 46.5%
h3-hermonville 02-08-2026 - 08:50 20.2°C / 45%
h4-hermonville 02-08-2026 - 08:48 27.4°C / 30.5%
h2-hermonville 02-08-2026 - 08:44 19.3°C / 45.5%
h1-hermonville 02-08-2026 - 08:44 18.6°C / 47%
h3-hermonville 02-08-2026 - 08:40 19.9°C / 45.5%
h4-hermonville 02-08-2026 - 08:38 25.1°C / 34.5%
h2-hermonville 02-08-2026 - 08:34 19°C / 47%
h1-hermonville 02-08-2026 - 08:34 18.5°C / 47.5%
h3-hermonville 02-08-2026 - 08:30 19.7°C / 45.5%
h4-hermonville 02-08-2026 - 08:28 22.6°C / 39%
h2-hermonville 02-08-2026 - 08:24 18.6°C / 47.5%
h1-hermonville 02-08-2026 - 08:24 18.3°C / 47%
h3-hermonville 02-08-2026 - 08:20 19.3°C / 46%
h4-hermonville 02-08-2026 - 08:18 21.5°C / 41%
h2-hermonville 02-08-2026 - 08:14 18.4°C / 48.5%
h1-hermonville 02-08-2026 - 08:14 18.4°C / 47.5%
h3-hermonville 02-08-2026 - 08:10 18.7°C / 48%
h4-hermonville 02-08-2026 - 08:08 20.6°C / 42.5%
h2-hermonville 02-08-2026 - 08:04 17.9°C / 50.5%
h1-hermonville 02-08-2026 - 08:04 18.2°C / 49.5%
h3-hermonville 02-08-2026 - 08:00 18.4°C / 49.5%
h4-hermonville 02-08-2026 - 07:58 20.1°C / 44.5%
h2-hermonville 02-08-2026 - 07:54 17.6°C / 53%
h1-hermonville 02-08-2026 - 07:54 17.9°C / 49.5%
h3-hermonville 02-08-2026 - 07:50 18.1°C / 51.5%
h4-hermonville 02-08-2026 - 07:48 19.2°C / 47.5%
h2-hermonville 02-08-2026 - 07:44 17.1°C / 54%
h1-hermonville 02-08-2026 - 07:44 17.7°C / 51.5%
h3-hermonville 02-08-2026 - 07:40 17.4°C / 53.5%
h4-hermonville 02-08-2026 - 07:38 18.9°C / 48.5%
h2-hermonville 02-08-2026 - 07:34 16.8°C / 55%
h1-hermonville 02-08-2026 - 07:34 17.3°C / 52%
h3-hermonville 02-08-2026 - 07:30 17.1°C / 54%
h4-hermonville 02-08-2026 - 07:28 18.4°C / 49.5%
h2-hermonville 02-08-2026 - 07:24 16.6°C / 55%
h1-hermonville 02-08-2026 - 07:24 17°C / 53.5%
h3-hermonville 02-08-2026 - 07:20 16.8°C / 54%
h4-hermonville 02-08-2026 - 07:18 18°C / 50%
h2-hermonville 02-08-2026 - 07:14 16.2°C / 55.5%
h1-hermonville 02-08-2026 - 07:14 16.8°C / 53.5%
h3-hermonville 02-08-2026 - 07:10 16.4°C / 54%
h4-hermonville 02-08-2026 - 07:08 17.8°C / 50%
h2-hermonville 02-08-2026 - 07:04 16°C / 56.5%
h1-hermonville 02-08-2026 - 07:04 16.5°C / 54.5%
h3-hermonville 02-08-2026 - 07:00 16.4°C / 55%
h4-hermonville 02-08-2026 - 06:58 17.7°C / 50.5%
h2-hermonville 02-08-2026 - 06:54 15.9°C / 57%
h1-hermonville 02-08-2026 - 06:54 16.3°C / 55.5%
h3-hermonville 02-08-2026 - 06:50 16.4°C / 55%
h4-hermonville 02-08-2026 - 06:48 17.5°C / 51%
h2-hermonville 02-08-2026 - 06:44 15.9°C / 56%
h1-hermonville 02-08-2026 - 06:44 15.9°C / 56%
h3-hermonville 02-08-2026 - 06:40 16.4°C / 55%
h4-hermonville 02-08-2026 - 06:38 17.4°C / 50.5%
h2-hermonville 02-08-2026 - 06:34 16.1°C / 55.5%
h1-hermonville 02-08-2026 - 06:34 15.6°C / 55.5%
h3-hermonville 02-08-2026 - 06:30 16.2°C / 54%
h4-hermonville 02-08-2026 - 06:28 17.6°C / 49.5%
h2-hermonville 02-08-2026 - 06:24 16.1°C / 55.5%
h1-hermonville 02-08-2026 - 06:24 15.6°C / 55%
h3-hermonville 02-08-2026 - 06:20 16.3°C / 54.5%
h4-hermonville 02-08-2026 - 06:18 18.2°C / 48%
h2-hermonville 02-08-2026 - 06:14 16.2°C / 55%
h1-hermonville 02-08-2026 - 06:14 15.8°C / 55.5%
h4-hermonville 02-08-2026 - 06:08 18.2°C / 48%
h2-hermonville 02-08-2026 - 06:04 16°C / 55.5%
h1-hermonville 02-08-2026 - 06:04 16.2°C / 55.5%
h3-hermonville 02-08-2026 - 06:00 16.2°C / 53.5%
h4-hermonville 02-08-2026 - 05:58 17.8°C / 49.5%
h2-hermonville 02-08-2026 - 05:54 16.1°C / 55%
h1-hermonville 02-08-2026 - 05:54 15.9°C / 56%
h3-hermonville 02-08-2026 - 05:50 16.4°C / 53%
h4-hermonville 02-08-2026 - 05:48 17.6°C / 50%
h2-hermonville 02-08-2026 - 05:44 16.4°C / 54%
h1-hermonville 02-08-2026 - 05:44 15.9°C / 55%
h3-hermonville 02-08-2026 - 05:40 16.5°C / 53%
h4-hermonville 02-08-2026 - 05:38 18.1°C / 48.5%
h2-hermonville 02-08-2026 - 05:34 16.5°C / 53.5%
h1-hermonville 02-08-2026 - 05:34 16.1°C / 54%
h3-hermonville 02-08-2026 - 05:30 16.8°C / 52%
h4-hermonville 02-08-2026 - 05:28 18°C / 49%
h2-hermonville 02-08-2026 - 05:24 16.6°C / 54%
h1-hermonville 02-08-2026 - 05:24 16.2°C / 53.5%
h3-hermonville 02-08-2026 - 05:20 16.9°C / 52.5%
h4-hermonville 02-08-2026 - 05:18 18.3°C / 48.5%
h2-hermonville 02-08-2026 - 05:14 16.8°C / 54%
h1-hermonville 02-08-2026 - 05:14 16.4°C / 53%
h3-hermonville 02-08-2026 - 05:10 16.9°C / 52%
h4-hermonville 02-08-2026 - 05:08 18.3°C / 48.5%
h2-hermonville 02-08-2026 - 05:04 16.9°C / 53.5%
h1-hermonville 02-08-2026 - 05:04 16.6°C / 53.5%
h3-hermonville 02-08-2026 - 05:00 17.1°C / 51.5%
h4-hermonville 02-08-2026 - 04:58 18.3°C / 48.5%
h2-hermonville 02-08-2026 - 04:54 17°C / 53.5%
h1-hermonville 02-08-2026 - 04:54 16.6°C / 54.5%
h3-hermonville 02-08-2026 - 04:50 17.4°C / 52%
h4-hermonville 02-08-2026 - 04:48 18.6°C / 48.5%
h2-hermonville 02-08-2026 - 04:44 17.2°C / 53.5%
h1-hermonville 02-08-2026 - 04:44 16.7°C / 54.5%
h3-hermonville 02-08-2026 - 04:40 17.3°C / 52.5%
h4-hermonville 02-08-2026 - 04:38 18.7°C / 48%
h2-hermonville 02-08-2026 - 04:34 17.4°C / 53.5%
h1-hermonville 02-08-2026 - 04:34 16.9°C / 52.5%
h3-hermonville 02-08-2026 - 04:30 17.5°C / 52%
h4-hermonville 02-08-2026 - 04:28 19.1°C / 47%
h2-hermonville 02-08-2026 - 04:24 17.2°C / 52.5%
h1-hermonville 02-08-2026 - 04:24 16.9°C / 52.5%
h3-hermonville 02-08-2026 - 04:20 17.5°C / 50.5%
h4-hermonville 02-08-2026 - 04:18 19.1°C / 46.5%
h2-hermonville 02-08-2026 - 04:14 17.5°C / 52%
h1-hermonville 02-08-2026 - 04:14 17°C / 52.5%
h3-hermonville 02-08-2026 - 04:10 17.7°C / 50.5%
h4-hermonville 02-08-2026 - 04:08 19°C / 47%
h2-hermonville 02-08-2026 - 04:04 17.6°C / 52%
h1-hermonville 02-08-2026 - 04:04 17.2°C / 52.5%
h3-hermonville 02-08-2026 - 04:00 17.9°C / 51%
h4-hermonville 02-08-2026 - 03:58 19.2°C / 47%
h2-hermonville 02-08-2026 - 03:54 17.8°C / 51.5%
h1-hermonville 02-08-2026 - 03:54 17.5°C / 50%
h3-hermonville 02-08-2026 - 03:50 18.1°C / 50.5%
h4-hermonville 02-08-2026 - 03:48 19.1°C / 47%
h2-hermonville 02-08-2026 - 03:44 18.1°C / 51.5%
h1-hermonville 02-08-2026 - 03:44 17.5°C / 52%
h3-hermonville 02-08-2026 - 03:40 18.3°C / 50.5%
h4-hermonville 02-08-2026 - 03:38 19.6°C / 47%
h2-hermonville 02-08-2026 - 03:34 18°C / 52.5%
h1-hermonville 02-08-2026 - 03:34 17.5°C / 49%
h3-hermonville 02-08-2026 - 03:30 18.3°C / 50.5%
h4-hermonville 02-08-2026 - 03:28 19.5°C / 46.5%
h2-hermonville 02-08-2026 - 03:24 18.3°C / 51%
h1-hermonville 02-08-2026 - 03:24 17.7°C / 49.5%
h3-hermonville 02-08-2026 - 03:20 18.5°C / 49.5%
h4-hermonville 02-08-2026 - 03:18 19.7°C / 46%
h2-hermonville 02-08-2026 - 03:14 18.3°C / 50.5%
h1-hermonville 02-08-2026 - 03:14 17.9°C / 51%
h3-hermonville 02-08-2026 - 03:10 18.7°C / 48.5%
h4-hermonville 02-08-2026 - 03:08 20°C / 45%
h2-hermonville 02-08-2026 - 03:04 18.6°C / 50.5%
h1-hermonville 02-08-2026 - 03:04 18.2°C / 51%
h3-hermonville 02-08-2026 - 03:00 19.3°C / 48.5%
h4-hermonville 02-08-2026 - 02:58 20°C / 45.5%
h2-hermonville 02-08-2026 - 02:54 18.7°C / 49.5%
h1-hermonville 02-08-2026 - 02:54 18.5°C / 47.5%
h3-hermonville 02-08-2026 - 02:50 19.5°C / 47%
h4-hermonville 02-08-2026 - 02:48 20.3°C / 45%
h2-hermonville 02-08-2026 - 02:44 19°C / 49%
h1-hermonville 02-08-2026 - 02:44 18.6°C / 47%
h3-hermonville 02-08-2026 - 02:40 19.7°C / 47%
h4-hermonville 02-08-2026 - 02:38 20.6°C / 43.5%
h2-hermonville 02-08-2026 - 02:34 19.1°C / 49.5%
h1-hermonville 02-08-2026 - 02:34 18.6°C / 47%
h3-hermonville 02-08-2026 - 02:30 19.7°C / 47%
h4-hermonville 02-08-2026 - 02:28 21.1°C / 44%
h2-hermonville 02-08-2026 - 02:24 19.5°C / 48%
h1-hermonville 02-08-2026 - 02:24 18.7°C / 48.5%
h3-hermonville 02-08-2026 - 02:20 19.7°C / 46.5%
h4-hermonville 02-08-2026 - 02:18 20.9°C / 44%
h2-hermonville 02-08-2026 - 02:14 19.7°C / 47.5%
h1-hermonville 02-08-2026 - 02:14 19°C / 48.5%
h3-hermonville 02-08-2026 - 02:10 20.1°C / 46%
h4-hermonville 02-08-2026 - 02:08 21.1°C / 43%
h2-hermonville 02-08-2026 - 02:04 19.8°C / 47%
h1-hermonville 02-08-2026 - 02:04 19.2°C / 46%
h3-hermonville 02-08-2026 - 02:00 20.5°C / 45%
h4-hermonville 02-08-2026 - 01:58 21.3°C / 43%
h1-hermonville 02-08-2026 - 01:54 19.3°C / 45%
h3-hermonville 02-08-2026 - 01:50 21.1°C / 43.5%
h4-hermonville 02-08-2026 - 01:48 21.7°C / 43.5%
h2-hermonville 02-08-2026 - 01:44 20.2°C / 48%
h1-hermonville 02-08-2026 - 01:44 19.5°C / 46%
h3-hermonville 02-08-2026 - 01:40 21.2°C / 44.5%
h4-hermonville 02-08-2026 - 01:38 21.7°C / 42.5%
h2-hermonville 02-08-2026 - 01:34 20.4°C / 47%
h1-hermonville 02-08-2026 - 01:34 19.7°C / 44.5%
h3-hermonville 02-08-2026 - 01:30 21.3°C / 43.5%
h4-hermonville 02-08-2026 - 01:28 21.8°C / 42.5%
h2-hermonville 02-08-2026 - 01:24 20.6°C / 46.5%
h1-hermonville 02-08-2026 - 01:24 19.8°C / 45.5%
h3-hermonville 02-08-2026 - 01:20 21.2°C / 44%
h4-hermonville 02-08-2026 - 01:18 22°C / 42%
h2-hermonville 02-08-2026 - 01:14 20.7°C / 45.5%
h1-hermonville 02-08-2026 - 01:14 20°C / 46%
h3-hermonville 02-08-2026 - 01:10 21.8°C / 43%
h4-hermonville 02-08-2026 - 01:08 22.2°C / 41%
h2-hermonville 02-08-2026 - 01:04 21.3°C / 44%
h1-hermonville 02-08-2026 - 01:04 20.3°C / 44.5%
h3-hermonville 02-08-2026 - 01:00 21.7°C / 43%
h4-hermonville 02-08-2026 - 00:58 22.4°C / 41.5%
h2-hermonville 02-08-2026 - 00:54 21.6°C / 43%
h1-hermonville 02-08-2026 - 00:54 20.4°C / 44.5%
h3-hermonville 02-08-2026 - 00:50 21.7°C / 42%
h4-hermonville 02-08-2026 - 00:48 22.7°C / 40%
h2-hermonville 02-08-2026 - 00:44 21.6°C / 42.5%
h3-hermonville 02-08-2026 - 00:40 21.8°C / 42%
h4-hermonville 02-08-2026 - 00:38 22.9°C / 40.5%
h2-hermonville 02-08-2026 - 00:34 22.1°C / 42%
h3-hermonville 02-08-2026 - 00:30 22°C / 42%
h4-hermonville 02-08-2026 - 00:28 23°C / 41%
h2-hermonville 02-08-2026 - 00:24 22.4°C / 41.5%
h1-hermonville 02-08-2026 - 00:24 20.8°C / 44%
h3-hermonville 02-08-2026 - 00:20 22.3°C / 42%
h4-hermonville 02-08-2026 - 00:18 23.1°C / 41.5%
h2-hermonville 02-08-2026 - 00:14 22.6°C / 42%
h1-hermonville 02-08-2026 - 00:14 21°C / 44.5%
h3-hermonville 02-08-2026 - 00:10 22.2°C / 42.5%
h4-hermonville 02-08-2026 - 00:08 23.2°C / 42%
h2-hermonville 02-08-2026 - 00:04 22.9°C / 41.5%
h1-hermonville 02-08-2026 - 00:04 21.1°C / 45%
h3-hermonville 02-08-2026 - 00:00 22.5°C / 42.5%